Time;durP1;ratioP1;P1;durP2;ratioP2;P2;SDS_P1;SDS_P2;PMS_P1;PMS_P2;Temp;Humidity;BMP_temperature;BMP_pressure;BME280_temperature;BME280_humidity;BME280_pressure;Samples;Min_cycle;Max_cycle;Signal;HPM_P1;HPM_P2
2022/06/30 00:00:04;;;;;;;7.82;1.92;;;13.90;99.90;;;;;;5044395;28;20025;-68
2022/06/30 00:02:30;;;;;;;6.57;2.67;;;13.90;99.90;;;;;;5060085;28;20033;-67
2022/06/30 00:04:55;;;;;;;7.30;2.50;;;13.90;99.90;;;;;;5044313;28;20032;-69
2022/06/30 00:07:21;;;;;;;9.50;2.33;;;13.80;99.90;;;;;;5044623;28;20300;-68
2022/06/30 00:09:47;;;;;;;7.13;2.35;;;13.90;99.90;;;;;;5042853;28;20025;-67
2022/06/30 00:12:12;;;;;;;9.38;2.42;;;13.90;99.90;;;;;;5044177;28;20035;-68
2022/06/30 00:14:38;;;;;;;7.55;2.70;;;13.90;99.90;;;;;;5042861;28;20092;-68
2022/06/30 00:17:04;;;;;;;5.68;2.30;;;14.00;99.90;;;;;;5044421;28;20017;-67
2022/06/30 00:19:30;;;;;;;8.15;2.42;;;14.00;99.90;;;;;;5044171;28;20029;-69
2022/06/30 00:21:55;;;;;;;8.00;2.33;;;13.90;99.90;;;;;;5043915;28;20060;-68
2022/06/30 00:24:21;;;;;;;10.43;2.40;;;13.80;99.90;;;;;;5043305;28;20216;-68
2022/06/30 00:26:47;;;;;;;9.93;2.72;;;13.70;99.90;;;;;;5043981;28;20029;-67
2022/06/30 00:29:12;;;;;;;6.43;2.65;;;13.60;99.90;;;;;;5044211;28;20052;-67
2022/06/30 00:31:38;;;;;;;6.38;2.92;;;13.60;99.90;;;;;;5044101;28;20060;-67
2022/06/30 00:34:04;;;;;;;8.32;2.83;;;13.60;99.90;;;;;;5043921;28;20033;-69
2022/06/30 00:36:30;;;;;;;6.47;2.55;;;13.70;99.90;;;;;;5043750;28;20257;-67
2022/06/30 00:38:55;;;;;;;6.70;2.90;;;13.80;99.90;;;;;;5043963;28;20240;-67
2022/06/30 00:41:21;;;;;;;8.68;3.33;;;14.00;99.90;;;;;;5043482;28;20028;-68
2022/06/30 00:43:48;;;;;;;7.40;2.80;;;14.00;99.90;;;;;;5043709;28;20037;-69
2022/06/30 00:46:14;;;;;;;10.43;2.97;;;14.00;99.90;;;;;;5043851;28;20077;-69
2022/06/30 00:48:41;;;;;;;6.68;2.95;;;14.10;99.90;;;;;;5059221;28;20017;-67
2022/06/30 00:51:07;;;;;;;7.15;2.42;;;14.00;99.90;;;;;;5041013;28;20236;-69
2022/06/30 00:53:36;;;;;;;8.52;2.90;;;14.10;99.90;;;;;;5042871;28;20216;-70
2022/06/30 00:56:04;;;;;;;8.68;2.80;;;14.00;99.90;;;;;;5059161;28;20287;-67
2022/06/30 00:58:34;;;;;;;9.32;2.50;;;14.00;99.90;;;;;;5043641;28;20120;-69
2022/06/30 01:01:04;;;;;;;5.90;2.25;;;13.90;99.90;;;;;;5043539;28;20218;-68
2022/06/30 01:03:31;;;;;;;9.02;2.22;;;13.90;99.90;;;;;;5059050;28;20220;-68
2022/06/30 01:05:59;;;;;;;8.20;2.40;;;14.00;99.90;;;;;;5043334;28;20025;-68
2022/06/30 01:08:25;;;;;;;7.65;2.63;;;13.90;99.90;;;;;;5043656;28;20018;-67
2022/06/30 01:13:37;;;;;;;9.30;2.33;;;13.90;99.90;;;;;;5042326;28;20021;-68
2022/06/30 01:16:02;;;;;;;5.90;2.38;;;13.90;99.90;;;;;;5043716;28;20029;-67
2022/06/30 01:18:28;;;;;;;8.45;2.55;;;13.90;99.90;;;;;;5042033;28;20025;-68
2022/06/30 01:20:54;;;;;;;3.88;2.53;;;13.90;99.90;;;;;;5043399;28;20063;-68
2022/06/30 01:23:20;;;;;;;7.93;2.60;;;13.80;99.90;;;;;;5043465;28;20033;-67
2022/06/30 01:25:46;;;;;;;9.77;2.50;;;13.90;99.90;;;;;;5043243;28;20071;-68
2022/06/30 01:28:11;;;;;;;8.18;2.55;;;14.00;99.90;;;;;;5058953;28;20017;-69
2022/06/30 01:30:37;;;;;;;6.18;2.30;;;13.90;99.90;;;;;;5043115;28;20213;-67
2022/06/30 01:33:03;;;;;;;7.10;2.35;;;14.00;99.90;;;;;;5043460;28;20033;-68
2022/06/30 01:35:29;;;;;;;10.80;2.47;;;14.00;99.90;;;;;;5042958;28;20029;-67
2022/06/30 01:37:57;;;;;;;9.98;2.55;;;13.90;99.90;;;;;;5042380;28;20025;-67
2022/06/30 01:40:24;;;;;;;6.35;1.85;;;13.90;99.90;;;;;;5041598;28;20025;-70
2022/06/30 01:42:51;;;;;;;7.30;2.50;;;14.00;99.90;;;;;;5043267;28;20092;-67
2022/06/30 01:45:18;;;;;;;8.82;2.13;;;13.90;99.90;;;;;;5044136;28;20419;-67
2022/06/30 01:47:44;;;;;;;12.55;2.33;;;14.00;99.90;;;;;;5045843;28;20025;-67
2022/06/30 01:50:16;;;;;;;5.95;2.10;;;13.90;99.90;;;;;;5062357;28;20049;-68
2022/06/30 01:52:42;;;;;;;3.88;1.92;;;13.90;99.90;;;;;;5044720;28;20036;-68
2022/06/30 01:55:08;;;;;;;5.93;2.45;;;14.00;99.90;;;;;;5046664;28;20029;-67
2022/06/30 01:57:35;;;;;;;8.55;2.35;;;14.00;99.90;;;;;;5047164;28;20017;-68
2022/06/30 02:00:03;;;;;;;10.40;2.50;;;13.90;99.90;;;;;;5062189;28;20026;-68
2022/06/30 02:02:29;;;;;;;4.18;2.28;;;13.90;99.90;;;;;;5046702;28;20025;-68
2022/06/30 02:04:54;;;;;;;7.40;2.40;;;13.90;99.90;;;;;;5046895;28;20053;-67
2022/06/30 02:07:21;;;;;;;5.43;2.08;;;13.90;99.90;;;;;;5046786;28;20076;-68
2022/06/30 02:09:50;;;;;;;9.13;2.53;;;13.80;99.90;;;;;;5046558;28;20029;-67
2022/06/30 02:15:03;;;;;;;6.88;2.58;;;13.80;99.90;;;;;;5045692;28;20039;-68
2022/06/30 02:17:29;;;;;;;9.93;2.80;;;13.80;99.90;;;;;;5046730;28;20088;-67
2022/06/30 02:19:55;;;;;;;10.88;2.30;;;13.80;99.90;;;;;;5046666;28;20036;-68
2022/06/30 02:22:21;;;;;;;8.15;2.58;;;13.80;99.90;;;;;;5045896;28;20029;-68
2022/06/30 02:24:46;;;;;;;14.05;2.53;;;13.70;99.90;;;;;;5046254;28;20043;-68
2022/06/30 02:27:12;;;;;;;4.63;2.28;;;13.70;99.90;;;;;;5045260;28;20021;-68
2022/06/30 02:29:38;;;;;;;6.00;2.10;;;13.70;99.90;;;;;;5046326;28;20080;-69
2022/06/30 02:32:04;;;;;;;9.07;1.88;;;13.60;99.90;;;;;;5061459;28;20244;-68
2022/06/30 02:34:30;;;;;;;8.52;2.55;;;13.50;99.90;;;;;;5046377;28;20029;-69
2022/06/30 02:36:56;;;;;;;10.07;2.40;;;13.50;99.90;;;;;;5046276;28;20451;-70
2022/06/30 02:39:22;;;;;;;7.03;2.80;;;13.50;99.90;;;;;;5046043;28;20021;-69
2022/06/30 02:41:48;;;;;;;7.35;2.65;;;13.50;99.90;;;;;;5028791;28;20056;-70
2022/06/30 02:44:13;;;;;;;6.70;2.38;;;13.50;99.90;;;;;;5028589;28;20068;-68
2022/06/30 02:46:39;;;;;;;6.38;2.25;;;13.50;99.90;;;;;;5044750;28;20036;-69
2022/06/30 02:49:05;;;;;;;4.95;2.40;;;13.40;99.90;;;;;;5046029;28;20092;-69
2022/06/30 02:51:31;;;;;;;9.27;2.83;;;13.40;99.90;;;;;;5042404;28;20053;-69
2022/06/30 02:53:57;;;;;;;7.65;2.72;;;13.40;99.90;;;;;;5045809;28;20100;-71
2022/06/30 02:56:22;;;;;;;8.32;3.05;;;13.40;99.90;;;;;;5060959;28;20024;-69
2022/06/30 02:58:49;;;;;;;8.38;3.22;;;13.40;99.90;;;;;;5044405;28;20025;-69
2022/06/30 03:01:15;;;;;;;11.20;3.30;;;13.40;99.90;;;;;;5044710;28;20024;-68
2022/06/30 03:03:41;;;;;;;8.98;3.47;;;13.40;99.90;;;;;;5045468;28;20068;-68
2022/06/30 03:06:06;;;;;;;7.28;3.30;;;13.40;99.90;;;;;;5045881;28;20037;-68
2022/06/30 03:08:33;;;;;;;9.30;3.55;;;13.40;99.90;;;;;;5045986;28;20037;-70
2022/06/30 03:10:59;;;;;;;9.75;3.70;;;13.30;99.90;;;;;;5044534;28;20021;-69
2022/06/30 03:13:25;;;;;;;8.38;4.38;;;13.30;99.90;;;;;;5045308;28;20070;-68
2022/06/30 03:15:51;;;;;;;11.88;4.28;;;13.20;99.90;;;;;;5061655;28;20263;-69
2022/06/30 03:18:17;;;;;;;7.75;3.70;;;13.10;99.90;;;;;;5061428;28;20334;-68
2022/06/30 03:20:43;;;;;;;7.90;3.92;;;13.00;99.90;;;;;;5045948;28;20021;-69
2022/06/30 03:23:08;;;;;;;10.93;4.40;;;12.90;99.90;;;;;;5061942;28;20041;-71
2022/06/30 03:25:34;;;;;;;12.02;4.85;;;12.80;99.90;;;;;;5049305;28;20021;-68
2022/06/30 03:28:02;;;;;;;14.93;4.43;;;12.70;99.90;;;;;;5050965;28;20026;-69
2022/06/30 03:30:28;;;;;;;10.00;4.47;;;12.70;99.90;;;;;;5050671;28;20023;-68
2022/06/30 03:32:53;;;;;;;7.63;4.25;;;12.60;99.90;;;;;;5050702;28;20045;-68
2022/06/30 03:35:19;;;;;;;8.77;4.45;;;12.60;99.90;;;;;;5066284;28;20036;-69
2022/06/30 03:37:46;;;;;;;11.73;4.50;;;12.50;99.90;;;;;;5082738;28;20049;-68
2022/06/30 03:40:12;;;;;;;8.40;4.63;;;12.50;99.90;;;;;;5049115;28;20017;-69
2022/06/30 03:42:37;;;;;;;11.43;4.97;;;12.40;99.90;;;;;;5046232;28;20033;-69
2022/06/30 03:45:04;;;;;;;6.88;4.38;;;12.40;99.90;;;;;;5078297;28;20028;-69
2022/06/30 03:47:30;;;;;;;9.38;4.38;;;12.40;99.90;;;;;;5045551;28;20030;-69
2022/06/30 03:49:55;;;;;;;12.27;4.88;;;12.30;99.90;;;;;;5043578;28;20170;-67
2022/06/30 03:52:21;;;;;;;15.48;5.03;;;12.20;99.90;;;;;;5042865;28;20096;-68
2022/06/30 03:54:47;;;;;;;15.88;5.00;;;12.20;99.90;;;;;;5045082;28;20029;-69
2022/06/30 03:57:13;;;;;;;13.05;5.13;;;12.10;99.90;;;;;;5045104;28;20040;-69
2022/06/30 03:59:39;;;;;;;13.40;4.88;;;12.10;99.90;;;;;;5043759;28;20358;-69
2022/06/30 04:02:06;;;;;;;16.48;5.38;;;12.10;99.90;;;;;;5043658;28;20036;-70
2022/06/30 04:04:32;;;;;;;12.25;5.10;;;12.10;99.90;;;;;;5044243;28;20028;-69
2022/06/30 04:06:58;;;;;;;13.05;5.10;;;12.10;99.90;;;;;;5060194;28;20093;-67
2022/06/30 04:09:24;;;;;;;19.95;4.90;;;12.10;99.90;;;;;;5044191;28;20033;-68
2022/06/30 04:11:50;;;;;;;15.15;4.60;;;12.10;99.90;;;;;;5044326;28;20026;-69
2022/06/30 04:14:15;;;;;;;12.15;4.68;;;12.10;99.90;;;;;;5044067;28;20037;-67
2022/06/30 04:16:41;;;;;;;18.63;4.63;;;12.10;99.90;;;;;;5060019;28;20029;-69
2022/06/30 04:19:07;;;;;;;14.10;4.40;;;12.20;99.90;;;;;;5044037;28;20028;-68
2022/06/30 04:21:32;;;;;;;14.93;4.47;;;12.20;99.90;;;;;;5043992;28;20032;-69
2022/06/30 04:23:58;;;;;;;13.23;4.70;;;12.20;99.90;;;;;;5059241;28;20085;-67
2022/06/30 04:26:23;;;;;;;12.88;4.93;;;12.20;99.90;;;;;;5043075;28;20029;-70
2022/06/30 04:28:49;;;;;;;15.00;5.20;;;12.30;99.90;;;;;;5044256;28;20067;-68
2022/06/30 04:34:00;;;;;;;16.05;4.70;;;12.30;99.90;;;;;;5042969;28;20347;-69
2022/06/30 04:36:26;;;;;;;12.52;4.50;;;12.30;99.90;;;;;;5043780;28;20088;-68
2022/06/30 04:38:51;;;;;;;15.38;4.25;;;12.50;99.90;;;;;;5042378;28;20040;-67
2022/06/30 04:41:24;;;;;;;14.70;4.03;;;12.60;99.90;;;;;;5043909;28;20024;-66
2022/06/30 04:43:53;;;;;;;17.35;3.53;;;12.70;99.90;;;;;;5027155;28;20096;-66
2022/06/30 04:46:19;;;;;;;7.57;2.88;;;12.90;99.90;;;;;;5043709;28;20067;-71
2022/06/30 04:48:45;;;;;;;9.55;3.08;;;13.10;99.90;;;;;;5043924;28;20317;-69
2022/06/30 04:51:10;;;;;;;10.18;3.30;;;13.20;99.90;;;;;;5043848;28;20081;-66
2022/06/30 04:53:36;;;;;;;15.48;2.83;;;13.40;99.90;;;;;;5041733;28;20267;-69
2022/06/30 04:56:02;;;;;;;7.03;2.53;;;13.50;99.90;;;;;;5043603;28;20036;-65
2022/06/30 04:58:27;;;;;;;6.35;2.35;;;13.70;99.90;;;;;;5043676;28;20040;-67
2022/06/30 05:00:53;;;;;;;12.35;2.72;;;14.00;99.90;;;;;;5043606;28;20089;-67
2022/06/30 05:03:19;;;;;;;11.20;2.55;;;14.10;99.90;;;;;;5043533;28;20029;-69
2022/06/30 05:05:45;;;;;;;8.50;2.80;;;14.30;99.90;;;;;;5043540;28;20029;-68
2022/06/30 05:08:10;;;;;;;6.13;2.53;;;14.40;99.90;;;;;;5042956;28;20312;-67
2022/06/30 05:10:36;;;;;;;5.75;2.63;;;14.50;99.90;;;;;;5043438;28;20037;-68
2022/06/30 05:13:02;;;;;;;8.98;2.88;;;14.60;99.90;;;;;;5058991;28;20033;-69
2022/06/30 05:15:27;;;;;;;6.78;2.40;;;14.60;99.90;;;;;;5043265;28;20029;-68
2022/06/30 05:17:53;;;;;;;11.15;2.67;;;14.80;99.90;;;;;;5043579;28;20025;-68
2022/06/30 05:20:19;;;;;;;12.27;2.65;;;14.80;99.90;;;;;;5042749;28;20025;-68
2022/06/30 05:22:44;;;;;;;5.28;2.20;;;14.90;99.90;;;;;;5042875;28;20080;-69
2022/06/30 05:27:56;;;;;;;9.57;2.90;;;15.00;99.90;;;;;;5042502;28;20048;-68
2022/06/30 05:30:21;;;;;;;12.93;3.65;;;14.90;99.90;;;;;;5043220;28;20021;-69
2022/06/30 05:32:47;;;;;;;6.63;2.75;;;14.80;99.90;;;;;;5042898;28;20071;-68
2022/06/30 05:35:13;;;;;;;8.55;3.17;;;14.70;99.90;;;;;;5043011;28;20029;-69
2022/06/30 05:37:38;;;;;;;9.10;2.72;;;14.60;99.90;;;;;;5043040;28;20083;-68
2022/06/30 05:40:05;;;;;;;9.93;3.03;;;14.50;99.90;;;;;;5041726;28;20032;-66
2022/06/30 05:42:31;;;;;;;13.30;3.08;;;14.40;99.90;;;;;;5024691;28;20100;-67
2022/06/30 05:44:57;;;;;;;9.48;3.35;;;14.40;99.90;;;;;;5024752;28;20029;-69
2022/06/30 05:47:24;;;;;;;13.27;2.50;;;14.30;99.90;;;;;;5040807;28;20052;-68
2022/06/30 05:49:50;;;;;;;9.95;2.90;;;14.30;99.90;;;;;;5041745;28;20033;-68
2022/06/30 05:52:15;;;;;;;8.48;3.30;;;14.30;99.90;;;;;;5041564;28;20277;-67
2022/06/30 05:54:41;;;;;;;11.07;3.00;;;14.30;99.90;;;;;;5040562;28;20214;-67
2022/06/30 05:57:06;;;;;;;12.85;2.97;;;14.30;99.90;;;;;;5042749;28;20186;-66
2022/06/30 05:59:34;;;;;;;12.63;3.00;;;14.50;99.90;;;;;;5042726;28;20033;-67
2022/06/30 06:02:00;;;;;;;19.02;3.70;;;14.50;99.90;;;;;;5042973;28;20014;-67
2022/06/30 06:04:26;;;;;;;13.77;3.30;;;14.50;99.90;;;;;;5057766;28;20025;-68
2022/06/30 06:06:52;;;;;;;9.38;3.05;;;14.70;99.90;;;;;;5058032;28;20059;-67
2022/06/30 06:09:18;;;;;;;18.50;3.75;;;14.80;99.90;;;;;;5042845;28;20037;-67
2022/06/30 06:11:44;;;;;;;16.67;4.00;;;14.70;99.90;;;;;;5043076;28;20022;-71
2022/06/30 06:14:10;;;;;;;16.50;2.97;;;14.60;99.90;;;;;;5042156;28;20083;-68
2022/06/30 06:16:36;;;;;;;10.82;2.50;;;14.60;99.90;;;;;;5057901;28;20017;-67
2022/06/30 06:19:02;;;;;;;17.67;2.65;;;14.50;99.90;;;;;;5058119;28;20386;-68
2022/06/30 06:21:28;;;;;;;10.50;2.38;;;14.40;99.90;;;;;;5042779;28;20023;-67
2022/06/30 06:23:54;;;;;;;14.68;2.70;;;14.40;99.90;;;;;;5041874;28;20127;-69
2022/06/30 06:26:20;;;;;;;10.73;2.58;;;14.40;99.90;;;;;;5042304;28;20040;-68
2022/06/30 06:31:34;;;;;;;14.40;2.40;;;14.30;99.90;;;;;;5042923;28;20248;-68
2022/06/30 06:34:00;;;;;;;12.60;2.50;;;14.10;99.90;;;;;;5044513;28;20048;-67
2022/06/30 06:36:27;;;;;;;14.13;2.78;;;14.10;99.90;;;;;;5044833;28;20213;-67
2022/06/30 06:38:52;;;;;;;11.43;2.55;;;14.10;99.90;;;;;;5045836;28;20029;-66
2022/06/30 06:41:20;;;;;;;11.35;2.45;;;14.10;99.90;;;;;;5045916;28;20044;-67
2022/06/30 06:43:47;;;;;;;8.52;2.40;;;14.30;99.90;;;;;;5028477;28;20036;-67
2022/06/30 06:46:13;;;;;;;12.23;2.30;;;14.30;99.90;;;;;;5044793;28;20021;-70
2022/06/30 06:48:39;;;;;;;9.15;1.90;;;14.40;99.90;;;;;;5044360;28;20378;-71
2022/06/30 06:51:05;;;;;;;13.15;2.20;;;14.40;99.90;;;;;;5045838;28;20049;-68
2022/06/30 06:53:30;;;;;;;16.73;2.92;;;14.50;99.90;;;;;;5042846;28;20033;-70
2022/06/30 06:55:56;;;;;;;14.65;2.65;;;14.70;99.90;;;;;;5058930;28;20037;-72
2022/06/30 06:58:22;;;;;;;10.25;2.28;;;14.80;99.90;;;;;;5045279;28;20021;-70
2022/06/30 07:00:47;;;;;;;9.98;2.08;;;14.90;99.90;;;;;;5044730;28;20321;-69
2022/06/30 07:03:13;;;;;;;11.38;2.17;;;14.90;99.90;;;;;;5061186;28;20056;-69
2022/06/30 07:05:40;;;;;;;10.55;1.92;;;15.00;99.90;;;;;;5045032;28;20047;-68
2022/06/30 07:08:06;;;;;;;10.07;2.20;;;15.00;99.90;;;;;;5045626;28;20025;-69
2022/06/30 07:10:31;;;;;;;13.48;2.50;;;15.00;99.90;;;;;;5044504;28;20114;-68
2022/06/30 07:12:57;;;;;;;11.00;2.00;;;15.00;99.90;;;;;;5048019;28;20105;-70
2022/06/30 07:15:23;;;;;;;17.75;2.17;;;15.10;99.90;;;;;;5050238;28;20030;-70
2022/06/30 07:17:49;;;;;;;14.88;2.30;;;15.30;99.90;;;;;;5044185;28;20025;-70
2022/06/30 07:20:15;;;;;;;17.17;2.65;;;15.50;99.90;;;;;;5043775;28;20029;-69
2022/06/30 07:22:40;;;;;;;8.70;1.80;;;15.70;99.90;;;;;;5042450;28;20484;-72
2022/06/30 07:25:07;;;;;;;9.57;2.08;;;15.90;99.90;;;;;;5044256;28;20284;-70
2022/06/30 07:27:33;;;;;;;11.48;1.63;;;16.00;99.90;;;;;;5043164;28;20029;-68
2022/06/30 07:29:58;;;;;;;11.30;1.40;;;16.10;99.90;;;;;;5058794;28;20025;-69
2022/06/30 07:32:25;;;;;;;15.15;1.90;;;16.10;99.40;;;;;;5043831;28;20327;-70
2022/06/30 07:34:50;;;;;;;12.68;2.10;;;16.00;99.90;;;;;;5041966;28;20313;-71
2022/06/30 07:37:16;;;;;;;6.28;1.70;;;16.10;99.90;;;;;;5042648;28;20243;-70
2022/06/30 07:39:42;;;;;;;13.95;2.03;;;16.20;99.90;;;;;;5044324;28;20029;-69
2022/06/30 07:42:07;;;;;;;10.57;1.77;;;16.30;99.30;;;;;;5044895;28;20063;-69
2022/06/30 07:44:33;;;;;;;10.85;2.33;;;16.40;99.10;;;;;;5039132;28;20133;-69
2022/06/30 07:46:59;;;;;;;12.65;2.00;;;16.50;98.80;;;;;;5053949;28;20087;-69
2022/06/30 07:49:25;;;;;;;9.98;1.80;;;16.70;98.50;;;;;;5059503;28;20029;-70
2022/06/30 07:51:52;;;;;;;10.32;1.83;;;16.70;97.60;;;;;;5042623;28;20049;-70
2022/06/30 07:54:19;;;;;;;7.93;1.23;;;16.80;97.40;;;;;;5043801;28;20037;-70
2022/06/30 07:56:45;;;;;;;13.18;1.80;;;17.00;94.80;;;;;;5042218;28;20018;-70
2022/06/30 07:59:13;;;;;;;13.10;1.95;;;17.10;94.50;;;;;;5025872;28;20042;-68
2022/06/30 08:01:38;;;;;;;7.75;1.60;;;17.40;95.70;;;;;;5041240;28;20025;-67
2022/06/30 08:04:04;;;;;;;6.75;1.15;;;17.50;94.30;;;;;;5042677;28;20033;-70
2022/06/30 08:06:30;;;;;;;9.43;1.90;;;17.50;94.40;;;;;;5042421;28;20017;-69
2022/06/30 08:08:55;;;;;;;9.52;1.63;;;17.60;94.50;;;;;;5043658;28;20025;-70
2022/06/30 08:11:22;;;;;;;7.75;1.48;;;17.50;94.40;;;;;;5042644;28;20021;-70
2022/06/30 08:13:48;;;;;;;23.40;2.55;;;17.50;93.90;;;;;;5041964;28;20033;-70
2022/06/30 08:16:15;;;;;;;5.50;1.42;;;17.50;94.80;;;;;;5043854;28;20021;-69
2022/06/30 08:18:42;;;;;;;9.32;1.35;;;17.50;94.90;;;;;;5042005;28;20025;-70
2022/06/30 08:21:09;;;;;;;9.52;1.70;;;17.70;94.70;;;;;;5042798;28;20049;-69
2022/06/30 08:23:35;;;;;;;12.77;1.50;;;17.70;94.30;;;;;;5042190;28;20017;-70
2022/06/30 08:26:01;;;;;;;8.57;1.55;;;17.80;93.80;;;;;;5048119;28;20017;-68
2022/06/30 08:28:27;;;;;;;10.13;1.67;;;17.80;94.10;;;;;;5041498;28;20367;-71
2022/06/30 08:30:53;;;;;;;6.97;1.85;;;17.90;93.40;;;;;;5042668;28;20059;-67
2022/06/30 08:33:18;;;;;;;14.52;1.73;;;18.00;93.10;;;;;;5057716;28;20065;-68
2022/06/30 08:35:44;;;;;;;7.78;1.50;;;17.90;92.60;;;;;;5041381;28;20296;-68
2022/06/30 08:38:10;;;;;;;7.30;1.40;;;18.10;92.30;;;;;;5040787;28;20087;-68
2022/06/30 08:43:25;;;;;;;15.25;2.03;;;18.30;92.40;;;;;;5054864;28;20021;-69
2022/06/30 08:45:52;;;;;;;12.68;1.85;;;18.50;92.10;;;;;;5074084;28;20021;-72
2022/06/30 08:48:18;;;;;;;10.85;1.52;;;18.60;90.90;;;;;;5057565;28;20025;-71
2022/06/30 08:50:48;;;;;;;7.72;1.70;;;18.70;91.10;;;;;;5041213;28;20088;-71
2022/06/30 08:53:15;;;;;;;9.82;1.40;;;18.70;91.40;;;;;;5041845;28;20087;-71
2022/06/30 08:55:42;;;;;;;7.30;1.20;;;18.70;91.20;;;;;;5041703;28;20047;-70
2022/06/30 08:58:09;;;;;;;6.40;1.15;;;18.60;90.70;;;;;;5023545;28;20087;-68
2022/06/30 09:00:36;;;;;;;11.57;1.70;;;18.50;90.70;;;;;;5042116;28;20085;-68
2022/06/30 09:03:03;;;;;;;9.98;1.55;;;18.60;91.20;;;;;;5023340;28;20025;-67
2022/06/30 09:05:29;;;;;;;10.77;1.38;;;18.50;90.60;;;;;;5041131;28;20053;-67
2022/06/30 09:07:55;;;;;;;10.75;1.50;;;18.40;90.70;;;;;;5024422;28;20087;-68
2022/06/30 09:10:22;;;;;;;10.98;1.65;;;18.40;91.10;;;;;;5042606;28;20026;-69
2022/06/30 09:12:57;;;;;;;7.18;1.10;;;18.40;90.50;;;;;;5042451;28;20132;-68
2022/06/30 09:15:23;;;;;;;11.82;1.70;;;18.20;90.90;;;;;;5057575;28;20261;-71
2022/06/30 09:17:48;;;;;;;9.70;1.85;;;18.10;90.60;;;;;;5042677;28;20021;-69
2022/06/30 09:20:14;;;;;;;8.02;1.33;;;18.00;91.30;;;;;;5042015;28;20028;-71
2022/06/30 09:22:41;;;;;;;7.68;1.80;;;17.90;90.10;;;;;;5041828;28;20029;-67
2022/06/30 09:25:09;;;;;;;14.15;1.50;;;17.90;91.00;;;;;;5041035;28;20022;-69
2022/06/30 09:27:40;;;;;;;13.60;1.83;;;17.90;90.20;;;;;;5041143;28;20423;-70
2022/06/30 09:30:10;;;;;;;7.28;1.30;;;17.90;90.20;;;;;;5041342;28;20025;-69
2022/06/30 09:32:56;;;;;;;8.23;1.48;;;18.00;90.20;;;;;;5040490;28;20335;-68
2022/06/30 09:35:24;;;;;;;7.95;1.65;;;18.00;90.10;;;;;;5041012;28;20025;-68
2022/06/30 09:38:02;;;;;;;6.72;1.00;;;18.00;90.40;;;;;;5040674;28;20300;-67
2022/06/30 09:40:35;;;;;;;5.18;1.15;;;18.10;90.00;;;;;;5040851;28;20097;-69
2022/06/30 09:43:03;;;;;;;9.20;1.73;;;18.20;90.20;;;;;;5073820;28;20021;-69
2022/06/30 09:45:36;;;;;;;7.70;1.00;;;18.40;89.30;;;;;;5041020;28;20378;-71
2022/06/30 09:48:02;;;;;;;6.65;1.08;;;18.50;87.60;;;;;;5074017;28;20025;-67
2022/06/30 09:50:28;;;;;;;6.80;1.23;;;18.50;87.50;;;;;;5039959;28;20104;-66
2022/06/30 09:53:14;;;;;;;8.73;1.27;;;18.50;86.90;;;;;;5041734;28;20038;-69
2022/06/30 09:55:43;;;;;;;6.50;1.10;;;18.50;87.20;;;;;;5023499;28;20040;-71
2022/06/30 09:58:10;;;;;;;5.60;1.13;;;18.70;85.80;;;;;;5039267;28;20052;-69
2022/06/30 10:00:50;;;;;;;5.53;0.90;;;18.90;83.70;;;;;;5023776;28;20022;-69
2022/06/30 10:03:17;;;;;;;5.75;1.05;;;19.20;83.70;;;;;;5040356;28;20079;-67
2022/06/30 10:05:45;;;;;;;7.05;1.10;;;19.20;84.00;;;;;;5040816;28;20037;-67
2022/06/30 10:08:12;;;;;;;5.50;0.80;;;19.20;82.90;;;;;;5045997;28;20013;-68
2022/06/30 10:10:41;;;;;;;5.70;1.08;;;19.20;84.00;;;;;;5044823;28;20029;-70
2022/06/30 10:13:12;;;;;;;5.70;1.00;;;19.20;85.20;;;;;;5044802;28;20328;-70
2022/06/30 10:15:39;;;;;;;3.53;1.02;;;19.40;85.50;;;;;;5043964;28;20051;-68
2022/06/30 10:18:07;;;;;;;4.93;1.00;;;19.40;83.60;;;;;;5045620;28;20037;-69
2022/06/30 10:20:38;;;;;;;8.98;1.50;;;19.30;84.90;;;;;;5043831;28;20028;-68
2022/06/30 10:23:06;;;;;;;7.18;1.20;;;19.30;84.70;;;;;;5044797;28;20018;-69
2022/06/30 10:25:32;;;;;;;5.80;1.10;;;19.20;85.20;;;;;;5026758;28;20044;-68
2022/06/30 10:27:59;;;;;;;4.45;1.00;;;19.20;83.40;;;;;;5043877;28;20361;-69
2022/06/30 10:30:33;;;;;;;9.65;1.10;;;19.20;84.20;;;;;;5043841;28;20032;-70
2022/06/30 10:33:06;;;;;;;5.93;0.77;;;19.30;83.70;;;;;;5043318;28;20108;-69
2022/06/30 10:35:59;;;;;;;6.65;1.23;;;19.40;83.20;;;;;;5025283;28;20034;-71
2022/06/30 10:38:35;;;;;;;6.63;1.30;;;19.30;84.00;;;;;;5023602;28;20018;-69
2022/06/30 10:41:11;;;;;;;8.20;1.05;;;19.40;84.70;;;;;;5044154;28;20009;-70
2022/06/30 10:44:14;;;;;;;9.30;1.50;;;19.40;84.00;;;;;;5044222;28;20088;-70
2022/06/30 10:47:02;;;;;;;6.18;0.93;;;19.30;84.00;;;;;;5042772;28;20164;-69
2022/06/30 10:49:29;;;;;;;16.17;2.05;;;19.30;84.30;;;;;;5055350;28;20039;-69
2022/06/30 10:51:57;;;;;;;18.08;2.05;;;19.30;83.50;;;;;;5043057;28;20363;-69
2022/06/30 10:54:43;;;;;;;7.32;1.33;;;19.50;84.20;;;;;;5043911;28;20351;-70
2022/06/30 10:57:09;;;;;;;6.57;1.23;;;19.60;83.30;;;;;;5041791;28;20283;-66
2022/06/30 10:59:39;;;;;;;5.70;1.30;;;19.60;80.90;;;;;;5040006;28;20238;-70
2022/06/30 11:02:25;;;;;;;6.40;0.98;;;19.60;82.50;;;;;;5042915;28;20036;-69
2022/06/30 11:05:26;;;;;;;4.03;0.73;;;19.60;81.90;;;;;;5035643;28;20030;-68
2022/06/30 11:07:52;;;;;;;3.72;0.88;;;19.70;81.30;;;;;;5024424;28;20022;-68
2022/06/30 11:10:19;;;;;;;5.32;1.10;;;19.90;80.20;;;;;;5024787;28;20030;-68
2022/06/30 11:12:52;;;;;;;5.10;1.08;;;20.10;80.80;;;;;;5043730;28;20053;-67
2022/06/30 11:15:18;;;;;;;6.05;0.80;;;20.50;80.50;;;;;;5043112;28;20201;-69
2022/06/30 11:17:44;;;;;;;8.82;1.30;;;20.70;78.90;;;;;;5042888;28;20025;-66
2022/06/30 11:20:12;;;;;;;8.48;1.20;;;20.60;80.40;;;;;;5044035;28;20033;-69
2022/06/30 11:22:39;;;;;;;7.13;1.52;;;20.50;80.70;;;;;;5042551;28;20036;-68
2022/06/30 11:25:08;;;;;;;4.40;1.13;;;20.60;81.10;;;;;;5044210;28;20029;-68
2022/06/30 11:27:36;;;;;;;6.32;0.95;;;20.60;79.40;;;;;;5044156;28;20273;-67
2022/06/30 11:30:10;;;;;;;5.70;0.95;;;20.40;80.20;;;;;;5043504;28;20037;-68
2022/06/30 11:32:36;;;;;;;5.10;1.25;;;20.40;80.70;;;;;;5043069;28;20026;-67
2022/06/30 11:35:03;;;;;;;4.35;0.80;;;20.50;80.10;;;;;;5043694;28;20021;-69
2022/06/30 11:37:30;;;;;;;8.70;1.30;;;20.60;79.50;;;;;;5043678;28;20029;-68
2022/06/30 11:39:58;;;;;;;8.65;1.98;;;20.80;80.00;;;;;;5042277;28;20102;-68
2022/06/30 11:42:24;;;;;;;7.68;1.45;;;20.70;79.60;;;;;;5026885;28;20022;-69
2022/06/30 11:44:50;;;;;;;4.63;1.20;;;20.70;79.70;;;;;;5041954;28;20033;-70
2022/06/30 11:47:17;;;;;;;6.75;1.40;;;20.40;80.90;;;;;;5042353;28;20048;-69
2022/06/30 11:49:52;;;;;;;9.70;1.27;;;20.30;81.50;;;;;;5042560;28;20277;-68
2022/06/30 11:52:22;;;;;;;7.65;1.80;;;20.20;82.00;;;;;;5042671;28;20064;-67
2022/06/30 11:54:58;;;;;;;6.38;1.17;;;20.10;83.30;;;;;;5042965;28;20067;-67
2022/06/30 11:57:26;;;;;;;4.05;0.90;;;19.90;84.70;;;;;;5042013;28;20029;-67
2022/06/30 12:00:00;;;;;;;4.20;1.10;;;19.60;85.10;;;;;;5041491;28;20132;-71
2022/06/30 12:02:27;;;;;;;5.25;0.90;;;19.40;85.90;;;;;;5041680;28;20333;-69
2022/06/30 12:04:54;;;;;;;8.43;1.60;;;19.20;85.50;;;;;;5025081;28;20029;-71
2022/06/30 12:07:23;;;;;;;10.73;1.25;;;19.20;85.90;;;;;;5041546;28;20025;-71
2022/06/30 12:09:51;;;;;;;5.13;0.93;;;19.30;86.00;;;;;;5058528;28;20096;-70
2022/06/30 12:12:23;;;;;;;4.88;0.77;;;19.40;83.20;;;;;;5042956;28;20091;-68
2022/06/30 12:14:52;;;;;;;6.57;1.13;;;19.40;82.90;;;;;;5041355;28;20069;-68
2022/06/30 12:17:18;;;;;;;8.27;1.10;;;19.50;82.80;;;;;;5040439;28;20348;-67
2022/06/30 12:19:46;;;;;;;7.15;0.98;;;19.40;82.80;;;;;;5043266;28;20060;-68
2022/06/30 12:22:12;;;;;;;8.00;1.13;;;19.30;83.90;;;;;;5042107;28;20330;-70
2022/06/30 12:24:40;;;;;;;11.38;1.98;;;19.20;83.30;;;;;;5042700;28;20021;-71
2022/06/30 12:27:07;;;;;;;6.57;0.80;;;19.20;84.10;;;;;;5041992;28;20025;-72
2022/06/30 12:29:33;;;;;;;3.97;1.02;;;19.20;84.30;;;;;;5041304;28;20335;-69
2022/06/30 12:32:08;;;;;;;7.10;1.50;;;19.30;84.20;;;;;;5040609;28;20064;-67
2022/06/30 12:34:50;;;;;;;6.20;1.05;;;19.40;83.80;;;;;;5040502;28;20040;-71
2022/06/30 12:37:15;;;;;;;3.53;0.70;;;19.30;83.90;;;;;;5041401;28;20025;-70
2022/06/30 12:39:45;;;;;;;7.65;0.90;;;19.20;85.50;;;;;;5041872;28;20052;-70
2022/06/30 12:42:11;;;;;;;5.68;0.90;;;19.10;85.10;;;;;;5025076;28;20342;-70
2022/06/30 12:44:38;;;;;;;6.45;1.00;;;18.80;85.40;;;;;;5041435;28;20053;-69
2022/06/30 12:47:09;;;;;;;9.88;1.15;;;18.70;86.80;;;;;;5057678;28;20022;-69
2022/06/30 12:49:37;;;;;;;6.53;0.88;;;18.80;86.50;;;;;;5057465;28;20327;-71
2022/06/30 12:52:19;;;;;;;3.30;0.80;;;18.70;86.20;;;;;;5040420;28;20068;-68
2022/06/30 12:55:00;;;;;;;4.72;0.75;;;18.80;85.80;;;;;;5041651;28;20021;-69
2022/06/30 12:57:26;;;;;;;4.78;0.70;;;18.80;88.40;;;;;;5041681;28;20033;-71
2022/06/30 12:59:54;;;;;;;2.15;0.60;;;18.70;87.20;;;;;;5041364;28;20085;-69